createdAt,value
2019-05-29T00:00:10.095Z,99.90
2019-05-29T00:02:38.776Z,99.90
2019-05-29T00:05:08.425Z,99.90
2019-05-29T00:07:37.273Z,99.90
2019-05-29T00:10:06.531Z,99.90
2019-05-29T00:12:35.182Z,99.90
2019-05-29T00:15:03.993Z,99.90
2019-05-29T00:17:32.640Z,99.90
2019-05-29T00:20:01.342Z,99.90
2019-05-29T00:22:29.945Z,99.90
2019-05-29T00:24:58.554Z,99.90
2019-05-29T00:27:27.180Z,99.90
2019-05-29T00:29:55.832Z,99.90
2019-05-29T00:32:24.423Z,99.90
2019-05-29T00:34:53.026Z,99.90
2019-05-29T00:37:40.966Z,99.90
2019-05-29T00:40:18.977Z,99.90
2019-05-29T00:42:48.306Z,99.90
2019-05-29T00:45:17.757Z,99.90
2019-05-29T00:47:46.369Z,99.90
2019-05-29T00:50:16.154Z,99.90
2019-05-29T00:52:44.934Z,99.90
2019-05-29T00:55:14.703Z,99.90
2019-05-29T00:57:43.451Z,99.90
2019-05-29T01:00:13.278Z,99.90
2019-05-29T01:02:42.253Z,99.90
2019-05-29T01:05:12.009Z,99.90
2019-05-29T01:07:40.921Z,99.90
2019-05-29T01:10:10.625Z,99.90
2019-05-29T01:12:40.466Z,99.90
2019-05-29T01:15:09.551Z,99.90
2019-05-29T01:17:38.277Z,99.90
2019-05-29T01:20:07.249Z,99.90
2019-05-29T01:22:36.623Z,99.90
2019-05-29T01:25:06.999Z,99.90
2019-05-29T01:27:35.726Z,99.90
2019-05-29T01:30:08.786Z,99.90
2019-05-29T01:32:37.344Z,99.90
2019-05-29T01:35:07.041Z,99.90
2019-05-29T01:37:35.684Z,99.90
2019-05-29T01:40:19.226Z,99.90
2019-05-29T01:42:36.202Z,99.90
2019-05-29T01:45:08.447Z,99.90
2019-05-29T01:47:37.300Z,99.90
2019-05-29T01:50:07.097Z,99.90
2019-05-29T01:52:35.825Z,99.90
2019-05-29T01:55:06.450Z,99.90
2019-05-29T01:57:35.133Z,99.90
2019-05-29T02:00:05.868Z,99.90
2019-05-29T02:02:34.562Z,99.90
2019-05-29T02:05:08.619Z,99.90
2019-05-29T02:07:37.319Z,99.90
2019-05-29T02:10:07.744Z,99.90
2019-05-29T02:12:36.524Z,99.90
2019-05-29T02:15:23.115Z,99.90
2019-05-29T02:17:39.067Z,99.90
2019-05-29T02:20:08.513Z,99.90
2019-05-29T02:22:37.215Z,99.90
2019-05-29T02:25:07.801Z,99.90
2019-05-29T02:27:36.492Z,99.90
2019-05-29T02:30:09.980Z,99.90
2019-05-29T02:32:38.781Z,99.90
2019-05-29T02:35:07.797Z,99.90
2019-05-29T02:37:36.437Z,99.90
2019-05-29T02:40:06.986Z,99.90
2019-05-29T02:42:35.646Z,99.90
2019-05-29T02:45:07.641Z,99.90
2019-05-29T02:47:36.329Z,99.90
2019-05-29T02:50:08.718Z,99.90
2019-05-29T02:52:37.427Z,99.90
2019-05-29T02:55:07.720Z,99.90
2019-05-29T02:57:36.582Z,99.90
2019-05-29T03:00:07.285Z,99.90
2019-05-29T03:02:35.897Z,99.90
2019-05-29T03:05:06.380Z,99.90
2019-05-29T03:07:35.736Z,99.90
2019-05-29T03:10:06.822Z,99.90
2019-05-29T03:12:36.126Z,99.90
2019-05-29T03:15:06.890Z,99.90
2019-05-29T03:17:35.674Z,99.90
2019-05-29T03:20:06.319Z,99.90
2019-05-29T03:22:35.264Z,99.90
2019-05-29T03:25:07.125Z,99.90
2019-05-29T03:27:35.759Z,99.90
2019-05-29T03:30:06.641Z,99.90
2019-05-29T03:32:47.978Z,99.90
2019-05-29T03:35:14.029Z,99.90
2019-05-29T03:37:46.785Z,99.90
2019-05-29T03:40:15.390Z,99.90
2019-05-29T03:42:43.979Z,99.90
2019-05-29T03:45:12.716Z,99.90
2019-05-29T03:47:41.297Z,99.90
2019-05-29T03:50:10.576Z,99.90
2019-05-29T03:52:39.246Z,99.90
2019-05-29T03:55:08.805Z,99.90
2019-05-29T03:57:38.324Z,99.90
2019-05-29T04:00:08.261Z,99.90
2019-05-29T04:02:38.257Z,99.90
2019-05-29T04:05:08.144Z,99.90
2019-05-29T04:07:38.032Z,99.90
2019-05-29T04:10:08.260Z,99.90
2019-05-29T04:12:38.050Z,99.90
2019-05-29T04:15:07.739Z,99.90
2019-05-29T04:17:38.329Z,99.90
2019-05-29T04:20:07.354Z,99.90
2019-05-29T04:22:39.100Z,99.90
2019-05-29T04:25:08.686Z,99.90
2019-05-29T04:27:39.855Z,99.90
2019-05-29T04:30:08.891Z,99.90
2019-05-29T04:32:38.609Z,99.90
2019-05-29T04:35:08.004Z,99.90
2019-05-29T04:37:37.089Z,99.90
2019-05-29T04:40:08.501Z,99.90
2019-05-29T04:42:38.142Z,99.90
2019-05-29T04:45:09.331Z,99.90
2019-05-29T04:47:39.346Z,99.90
2019-05-29T04:50:09.724Z,99.90
2019-05-29T04:52:39.869Z,99.90
2019-05-29T04:55:08.849Z,99.90
2019-05-29T04:57:37.487Z,99.90
2019-05-29T05:00:08.107Z,99.90
2019-05-29T05:02:37.301Z,99.90
2019-05-29T05:05:06.476Z,99.90
2019-05-29T05:07:35.349Z,99.90
2019-05-29T05:10:04.976Z,99.90
2019-05-29T05:12:33.717Z,99.90
2019-05-29T05:15:02.604Z,99.90
2019-05-29T05:17:31.907Z,99.90
2019-05-29T05:20:00.616Z,99.90
2019-05-29T05:22:30.001Z,99.90
2019-05-29T05:24:58.844Z,99.90
2019-05-29T05:27:27.486Z,99.90
2019-05-29T05:29:56.300Z,99.90
2019-05-29T05:32:24.867Z,99.90
2019-05-29T05:34:53.467Z,99.90
2019-05-29T05:37:22.163Z,99.90
2019-05-29T05:39:50.775Z,99.90
2019-05-29T05:42:19.717Z,99.90
2019-05-29T05:44:48.384Z,99.90
2019-05-29T05:47:17.283Z,99.90
2019-05-29T05:49:45.831Z,99.90
2019-05-29T05:52:14.505Z,99.90
2019-05-29T05:54:43.251Z,99.90
2019-05-29T05:57:11.867Z,99.90
2019-05-29T05:59:41.930Z,99.90
2019-05-29T06:02:10.933Z,99.90
2019-05-29T06:04:40.023Z,99.90
2019-05-29T06:07:09.055Z,99.90
2019-05-29T06:09:38.191Z,99.90
2019-05-29T06:12:07.183Z,99.90
2019-05-29T06:14:36.456Z,99.90
2019-05-29T06:17:05.283Z,99.90
2019-05-29T06:19:34.979Z,99.90
2019-05-29T06:22:03.872Z,99.90
2019-05-29T06:24:33.444Z,99.90
2019-05-29T06:27:02.587Z,99.90
2019-05-29T06:29:31.207Z,99.90
2019-05-29T06:31:59.989Z,99.90
2019-05-29T06:34:28.747Z,99.90
2019-05-29T06:36:57.531Z,99.90
2019-05-29T06:39:26.101Z,99.90
2019-05-29T06:41:54.931Z,99.90
2019-05-29T06:44:23.575Z,99.90
2019-05-29T06:46:52.463Z,99.90
2019-05-29T06:49:21.237Z,99.90
2019-05-29T06:51:50.152Z,99.90
2019-05-29T06:54:20.250Z,99.90
2019-05-29T06:56:49.035Z,99.90
2019-05-29T06:59:19.499Z,99.90
2019-05-29T07:01:48.445Z,99.90
2019-05-29T07:04:17.391Z,99.90
2019-05-29T07:06:46.778Z,99.90
2019-05-29T07:09:15.763Z,99.90
2019-05-29T07:11:45.508Z,99.90
2019-05-29T07:14:14.342Z,99.90
2019-05-29T07:16:51.550Z,99.90
2019-05-29T07:19:47.191Z,99.90
2019-05-29T07:21:45.007Z,99.90
2019-05-29T07:24:13.902Z,99.90
2019-05-29T07:26:43.451Z,99.90
2019-05-29T07:29:12.859Z,99.90
2019-05-29T07:31:41.415Z,99.90
2019-05-29T07:34:10.193Z,99.90
2019-05-29T07:36:39.887Z,99.90
2019-05-29T07:39:08.829Z,99.90
2019-05-29T07:41:38.188Z,99.90
2019-05-29T07:44:06.971Z,99.90
2019-05-29T07:46:35.703Z,99.90
2019-05-29T07:49:04.497Z,99.90
2019-05-29T07:51:33.343Z,99.90
2019-05-29T07:54:07.553Z,99.90
2019-05-29T07:56:42.472Z,99.90
2019-05-29T07:59:13.380Z,99.90
2019-05-29T08:01:44.787Z,99.90
2019-05-29T08:04:20.535Z,99.90
2019-05-29T08:06:54.051Z,99.90
2019-05-29T08:09:19.787Z,99.90
2019-05-29T08:11:50.011Z,99.90
2019-05-29T08:14:19.015Z,99.90
2019-05-29T08:16:50.170Z,99.90
2019-05-29T08:19:19.037Z,99.90
2019-05-29T08:21:48.496Z,99.90
2019-05-29T08:24:17.438Z,99.90
2019-05-29T08:26:46.855Z,99.90
2019-05-29T08:29:15.833Z,99.90
2019-05-29T08:31:44.771Z,99.90
2019-05-29T08:34:13.571Z,99.90
2019-05-29T08:37:00.832Z,99.90
2019-05-29T08:39:12.683Z,99.90
2019-05-29T08:41:52.773Z,99.90
2019-05-29T08:44:11.860Z,99.90
2019-05-29T08:46:41.680Z,99.90
2019-05-29T08:49:10.635Z,99.90
2019-05-29T08:51:39.303Z,99.90
2019-05-29T08:54:22.993Z,99.90
2019-05-29T08:56:38.457Z,99.90
2019-05-29T08:59:07.193Z,99.90
2019-05-29T09:01:35.906Z,99.90
2019-05-29T09:04:05.083Z,99.90
2019-05-29T09:06:33.826Z,99.90
2019-05-29T09:09:02.740Z,99.90
2019-05-29T09:11:31.397Z,99.90
2019-05-29T09:14:00.074Z,99.90
2019-05-29T09:16:28.938Z,99.90
2019-05-29T09:18:57.686Z,99.90
2019-05-29T09:21:26.781Z,99.90
2019-05-29T09:23:58.667Z,99.90
2019-05-29T09:26:26.701Z,99.90
2019-05-29T09:28:55.423Z,99.90
2019-05-29T09:31:24.217Z,99.90
2019-05-29T09:33:52.940Z,99.90
2019-05-29T09:36:22.769Z,99.90
2019-05-29T09:38:51.695Z,99.90
2019-05-29T09:41:21.610Z,99.90
2019-05-29T09:43:58.783Z,99.90
2019-05-29T09:46:21.850Z,99.90
2019-05-29T09:48:50.821Z,99.90
2019-05-29T09:51:21.501Z,99.90
2019-05-29T09:53:50.222Z,99.90
2019-05-29T09:56:19.068Z,99.90
2019-05-29T09:58:47.753Z,99.90
2019-05-29T10:01:23.378Z,99.90
2019-05-29T10:03:47.489Z,99.90
2019-05-29T10:06:16.216Z,99.90
2019-05-29T10:08:45.034Z,99.90
2019-05-29T10:11:13.759Z,99.90
2019-05-29T10:13:42.505Z,99.90
2019-05-29T10:16:11.218Z,99.90
2019-05-29T10:18:51.618Z,99.90
2019-05-29T10:21:38.176Z,99.90
2019-05-29T10:23:50.897Z,99.90
2019-05-29T10:26:19.638Z,99.90
2019-05-29T10:31:18.846Z,99.90
2019-05-29T10:32:52.797Z,99.90
2019-05-29T10:33:48.265Z,99.90
2019-05-29T10:36:17.218Z,99.90
2019-05-29T10:38:46.485Z,99.90
2019-05-29T10:41:15.324Z,99.90
2019-05-29T10:43:45.001Z,99.90
2019-05-29T10:46:13.923Z,99.90
2019-05-29T10:48:44.592Z,99.90
2019-05-29T10:51:13.744Z,99.90
2019-05-29T10:53:42.529Z,99.90
2019-05-29T10:56:11.130Z,99.90
2019-05-29T10:58:48.392Z,99.90
2019-05-29T11:01:10.176Z,99.90
2019-05-29T11:03:38.833Z,99.90
2019-05-29T11:06:07.552Z,99.90
2019-05-29T11:08:36.345Z,99.90
2019-05-29T11:11:05.110Z,99.90
2019-05-29T11:13:33.898Z,99.90
2019-05-29T11:16:02.686Z,99.90
2019-05-29T11:18:31.438Z,99.90
2019-05-29T11:21:00.187Z,99.90
2019-05-29T11:23:29.722Z,99.90
2019-05-29T11:25:58.931Z,99.90
2019-05-29T11:28:27.707Z,99.90
2019-05-29T11:30:57.233Z,99.90
2019-05-29T11:33:26.053Z,99.90
2019-05-29T11:36:07.921Z,99.90
2019-05-29T11:38:25.123Z,99.90
2019-05-29T11:41:22.611Z,99.90
2019-05-29T11:43:24.484Z,99.90
2019-05-29T11:45:53.350Z,99.90
2019-05-29T11:48:22.101Z,99.90
2019-05-29T11:50:50.706Z,99.90
2019-05-29T11:53:19.475Z,99.90
2019-05-29T11:55:48.252Z,99.90
2019-05-29T11:58:30.526Z,99.90
2019-05-29T12:00:48.603Z,99.90
2019-05-29T12:03:17.298Z,99.90
2019-05-29T12:05:46.256Z,99.90
2019-05-29T12:08:15.071Z,99.90
2019-05-29T12:10:43.900Z,99.90
2019-05-29T12:13:12.576Z,99.90
2019-05-29T12:15:41.270Z,99.90
2019-05-29T12:18:23.135Z,99.90
2019-05-29T12:20:40.565Z,99.90
2019-05-29T12:23:25.138Z,99.90
2019-05-29T12:25:39.564Z,99.90
2019-05-29T12:28:09.658Z,99.90
2019-05-29T12:30:38.413Z,99.90
2019-05-29T12:33:07.218Z,99.90
2019-05-29T12:35:36.048Z,99.90
2019-05-29T12:38:04.795Z,99.90
2019-05-29T12:40:33.573Z,99.90
2019-05-29T12:43:03.633Z,99.90
2019-05-29T12:45:32.676Z,99.90
2019-05-29T12:48:09.885Z,99.90
2019-05-29T12:50:34.352Z,99.90
2019-05-29T12:53:02.172Z,99.90
2019-05-29T12:55:30.947Z,99.90
2019-05-29T12:57:59.945Z,99.90
2019-05-29T13:00:29.140Z,99.90
2019-05-29T13:02:58.710Z,99.90
2019-05-29T13:05:29.135Z,99.90
2019-05-29T13:07:58.824Z,99.90
2019-05-29T13:10:31.027Z,99.90
2019-05-29T13:13:06.003Z,99.90
2019-05-29T13:15:29.398Z,99.90
2019-05-29T13:18:02.689Z,99.90
2019-05-29T13:20:28.540Z,99.90
2019-05-29T13:22:57.712Z,99.90
2019-05-29T13:25:26.655Z,99.90
2019-05-29T13:27:58.978Z,99.90
2019-05-29T13:30:26.020Z,99.90
2019-05-29T13:33:02.243Z,99.90
2019-05-29T13:35:26.941Z,99.90
2019-05-29T13:37:56.931Z,99.90
2019-05-29T13:40:25.815Z,99.90
2019-05-29T13:42:54.553Z,99.90
2019-05-29T13:45:25.260Z,99.90
2019-05-29T13:47:54.044Z,99.90
2019-05-29T13:50:22.902Z,99.90
2019-05-29T13:52:51.550Z,99.90
2019-05-29T13:55:20.348Z,99.90
2019-05-29T13:57:55.600Z,99.90
2019-05-29T14:00:32.990Z,99.90
2019-05-29T14:02:56.065Z,99.90
2019-05-29T14:05:25.739Z,99.90
2019-05-29T14:08:41.489Z,99.90
2019-05-29T14:10:25.273Z,99.90
2019-05-29T14:12:54.051Z,99.90
2019-05-29T14:15:22.916Z,99.90
2019-05-29T14:17:51.640Z,99.90
2019-05-29T14:20:20.807Z,99.90
2019-05-29T14:22:49.631Z,99.90
2019-05-29T14:25:19.237Z,99.90
2019-05-29T14:27:48.124Z,99.90
2019-05-29T14:30:17.677Z,99.90
2019-05-29T14:32:46.471Z,99.90
2019-05-29T14:35:15.239Z,99.90
2019-05-29T14:37:44.112Z,99.60
2019-05-29T14:40:16.620Z,99.90
2019-05-29T14:42:45.379Z,99.90
2019-05-29T14:45:14.648Z,99.90
2019-05-29T14:47:43.464Z,99.90
2019-05-29T14:50:14.079Z,99.90
2019-05-29T14:52:42.694Z,99.90
2019-05-29T14:55:16.226Z,99.90
2019-05-29T14:57:43.814Z,99.90
2019-05-29T15:00:24.685Z,99.90
2019-05-29T15:02:53.113Z,99.90
2019-05-29T15:05:24.254Z,99.90
2019-05-29T15:07:53.113Z,99.90
2019-05-29T15:10:27.260Z,99.70
2019-05-29T15:12:52.888Z,99.90
2019-05-29T15:15:21.854Z,99.70
2019-05-29T15:17:50.728Z,99.90
2019-05-29T15:20:19.736Z,99.90
2019-05-29T15:22:48.506Z,99.90
2019-05-29T15:25:24.029Z,99.90
2019-05-29T15:27:49.310Z,99.90
2019-05-29T15:30:23.084Z,99.90
2019-05-29T15:32:49.343Z,99.90
2019-05-29T15:35:20.000Z,99.90
2019-05-29T15:37:48.737Z,99.90
2019-05-29T15:40:17.745Z,99.90
2019-05-29T15:42:46.552Z,99.10
2019-05-29T15:45:16.011Z,98.70
2019-05-29T15:47:44.955Z,99.20
2019-05-29T15:50:15.947Z,99.10
2019-05-29T15:52:44.484Z,99.90
2019-05-29T15:55:34.035Z,99.80
2019-05-29T15:57:56.601Z,99.70
2019-05-29T16:00:25.380Z,99.20
2019-05-29T16:02:57.124Z,99.40
2019-05-29T16:05:25.900Z,99.00
2019-05-29T16:07:54.700Z,99.20
2019-05-29T16:10:23.608Z,99.70
2019-05-29T16:12:52.369Z,99.50
2019-05-29T16:15:21.324Z,99.90
2019-05-29T16:17:50.053Z,99.90
2019-05-29T16:20:19.463Z,99.90
2019-05-29T16:22:48.086Z,99.90
2019-05-29T16:25:17.028Z,99.90
2019-05-29T16:27:45.741Z,99.90
2019-05-29T16:30:17.579Z,99.90
2019-05-29T16:32:46.399Z,99.90
2019-05-29T16:35:17.169Z,99.90
2019-05-29T16:37:45.947Z,99.90
2019-05-29T16:40:16.477Z,99.90
2019-05-29T16:42:46.787Z,99.90
2019-05-29T16:45:16.530Z,99.90
2019-05-29T16:47:45.465Z,99.90
2019-05-29T16:50:19.366Z,99.90
2019-05-29T16:52:48.985Z,99.90
2019-05-29T16:55:19.382Z,99.90
2019-05-29T16:57:48.490Z,99.90
2019-05-29T17:00:19.452Z,99.90
2019-05-29T17:02:48.257Z,99.90
2019-05-29T17:05:17.728Z,99.90
2019-05-29T17:07:46.672Z,99.90
2019-05-29T17:10:16.336Z,99.90
2019-05-29T17:12:45.110Z,99.90
2019-05-29T17:15:16.974Z,99.90
2019-05-29T17:17:45.795Z,99.90
2019-05-29T17:20:16.413Z,99.90
2019-05-29T17:22:45.475Z,99.90
2019-05-29T17:25:14.795Z,99.90
2019-05-29T17:27:43.836Z,99.90
2019-05-29T17:30:12.818Z,99.90
2019-05-29T17:32:41.606Z,99.90
2019-05-29T17:35:10.467Z,99.90
2019-05-29T17:37:39.324Z,99.90
2019-05-29T17:40:08.641Z,99.90
2019-05-29T17:42:37.844Z,99.90
2019-05-29T17:45:09.112Z,99.90
2019-05-29T17:47:39.114Z,99.90
2019-05-29T17:50:08.421Z,99.90
2019-05-29T17:52:37.079Z,99.90
2019-05-29T17:55:07.647Z,99.90
2019-05-29T17:57:36.535Z,99.90
2019-05-29T18:00:11.657Z,99.90
2019-05-29T18:02:51.569Z,99.90
2019-05-29T18:05:11.578Z,99.90
2019-05-29T18:07:40.430Z,99.90
2019-05-29T18:10:09.822Z,99.90
2019-05-29T18:12:38.641Z,99.90
2019-05-29T18:15:09.380Z,99.90
2019-05-29T18:17:38.082Z,99.90
2019-05-29T18:20:09.760Z,99.90
2019-05-29T18:22:39.216Z,99.90
2019-05-29T18:25:09.931Z,99.90
2019-05-29T18:27:38.787Z,99.10
2019-05-29T18:30:08.697Z,98.00
2019-05-29T18:32:38.144Z,98.20
2019-05-29T18:35:07.900Z,97.70
2019-05-29T18:37:36.670Z,98.70
2019-05-29T18:40:12.049Z,99.20
2019-05-29T18:42:38.011Z,99.00
2019-05-29T18:45:19.784Z,99.60
2019-05-29T18:47:38.280Z,98.70
2019-05-29T18:50:11.861Z,98.50
2019-05-29T18:52:40.518Z,98.10
2019-05-29T18:55:10.104Z,97.40
2019-05-29T18:57:38.778Z,96.50
2019-05-29T19:00:10.714Z,96.00
2019-05-29T19:02:39.479Z,97.20
2019-05-29T19:05:08.918Z,95.90
2019-05-29T19:07:37.859Z,95.80
2019-05-29T19:10:08.508Z,96.50
2019-05-29T19:12:38.619Z,96.30
2019-05-29T19:15:08.346Z,96.80
2019-05-29T19:17:50.615Z,96.70
2019-05-29T19:20:19.604Z,96.80
2019-05-29T19:22:48.363Z,97.40
2019-05-29T19:25:17.511Z,96.60
2019-05-29T19:27:46.188Z,97.10
2019-05-29T19:30:15.196Z,97.30
2019-05-29T19:32:44.015Z,96.50
2019-05-29T19:35:13.036Z,96.00
2019-05-29T19:37:41.708Z,96.40
2019-05-29T19:40:11.293Z,96.50
2019-05-29T19:42:40.077Z,96.40
2019-05-29T19:45:11.018Z,96.60
2019-05-29T19:47:39.801Z,97.10
2019-05-29T19:50:11.254Z,97.40
2019-05-29T19:52:40.129Z,97.30
2019-05-29T19:55:09.478Z,98.00
2019-05-29T19:57:53.390Z,98.20
2019-05-29T20:00:10.629Z,98.30
2019-05-29T20:02:41.499Z,99.20
2019-05-29T20:05:10.734Z,99.10
2019-05-29T20:07:39.625Z,99.60
2019-05-29T20:10:09.500Z,99.10
2019-05-29T20:12:38.328Z,99.20
2019-05-29T20:15:07.833Z,99.30
2019-05-29T20:17:36.544Z,98.60
2019-05-29T20:20:09.133Z,98.40
2019-05-29T20:22:39.083Z,97.80
2019-05-29T20:25:08.969Z,97.80
2019-05-29T20:27:38.573Z,97.10
2019-05-29T20:30:10.403Z,97.70
2019-05-29T20:32:39.501Z,97.50
2019-05-29T20:35:08.445Z,97.60
2019-05-29T20:37:38.409Z,97.50
2019-05-29T20:40:08.075Z,97.20
2019-05-29T20:42:36.828Z,97.80
2019-05-29T20:45:10.095Z,98.10
2019-05-29T20:47:40.057Z,98.30
2019-05-29T20:50:10.736Z,97.90
2019-05-29T20:52:39.621Z,97.80
2019-05-29T20:55:10.134Z,98.10
2019-05-29T20:57:40.035Z,97.60
2019-05-29T21:00:13.115Z,97.50
2019-05-29T21:02:42.552Z,97.70
2019-05-29T21:05:14.823Z,97.70
2019-05-29T21:07:43.531Z,98.20
2019-05-29T21:10:12.960Z,98.10
2019-05-29T21:12:45.621Z,97.80
2019-05-29T21:15:12.526Z,98.40
2019-05-29T21:17:42.103Z,98.40
2019-05-29T21:20:12.431Z,98.90
2019-05-29T21:22:53.824Z,98.30
2019-05-29T21:25:24.033Z,99.20
2019-05-29T21:28:02.158Z,99.00
2019-05-29T21:30:32.583Z,99.70
2019-05-29T21:33:01.568Z,99.80
2019-05-29T21:35:32.323Z,99.80
2019-05-29T21:38:01.546Z,99.90
2019-05-29T21:40:38.308Z,99.90
2019-05-29T21:43:12.858Z,99.90
2019-05-29T21:45:50.369Z,99.90
2019-05-29T21:48:20.832Z,99.90
2019-05-29T21:50:54.752Z,99.90
2019-05-29T21:53:32.735Z,99.90
2019-05-29T21:56:06.199Z,99.90
2019-05-29T21:59:02.930Z,99.90
2019-05-29T22:01:18.802Z,99.90
2019-05-29T22:03:48.817Z,99.90
2019-05-29T22:09:05.784Z,99.90
2019-05-29T22:11:37.591Z,99.90
2019-05-29T22:14:06.465Z,99.90
2019-05-29T22:16:35.417Z,99.90
2019-05-29T22:19:04.411Z,99.90
2019-05-29T22:21:33.266Z,99.90
2019-05-29T22:24:01.917Z,99.90
2019-05-29T22:26:30.769Z,99.90
2019-05-29T22:29:15.680Z,99.90
2019-05-29T22:31:29.751Z,99.90
2019-05-29T22:33:59.500Z,99.90
2019-05-29T22:36:29.226Z,99.90
2019-05-29T22:38:57.874Z,99.90
2019-05-29T22:41:26.629Z,99.90
2019-05-29T22:43:55.477Z,99.90
2019-05-29T22:46:24.171Z,99.90
2019-05-29T22:48:53.685Z,99.90
2019-05-29T22:51:22.424Z,99.90
2019-05-29T22:53:52.446Z,99.90
2019-05-29T22:56:21.413Z,99.90
2019-05-29T22:58:50.063Z,99.90
2019-05-29T23:01:18.895Z,99.90
2019-05-29T23:03:47.589Z,99.90
2019-05-29T23:06:16.327Z,99.90
2019-05-29T23:08:44.989Z,99.90
2019-05-29T23:11:13.589Z,99.90
2019-05-29T23:13:42.353Z,99.90
2019-05-29T23:16:11.097Z,99.90
2019-05-29T23:18:39.779Z,99.90
2019-05-29T23:21:08.410Z,99.90
2019-05-29T23:23:36.997Z,99.90
2019-05-29T23:26:05.816Z,99.90
2019-05-29T23:28:34.575Z,99.90
2019-05-29T23:31:03.211Z,99.90
2019-05-29T23:33:31.813Z,99.90
2019-05-29T23:36:04.905Z,99.90
2019-05-29T23:38:33.742Z,99.90
2019-05-29T23:41:03.657Z,99.90
2019-05-29T23:43:43.189Z,99.90
2019-05-29T23:46:18.255Z,99.90
2019-05-29T23:48:53.460Z,99.90
2019-05-29T23:51:23.078Z,99.90
2019-05-29T23:53:54.007Z,99.90
2019-05-29T23:56:22.995Z,99.90
2019-05-29T23:58:51.801Z,99.90
